sensor_id;sensor_type;location;lat;lon;timestamp;temperature;humidity
59973;DHT22;55298;-36.624;-64.282;2022-12-05T00:01:28;28.80;25.00
59973;DHT22;55298;-36.624;-64.282;2022-12-05T00:03:58;28.70;25.20
59973;DHT22;55298;-36.624;-64.282;2022-12-05T00:06:29;28.50;25.60
59973;DHT22;55298;-36.624;-64.282;2022-12-05T00:08:58;28.50;25.70
59973;DHT22;55298;-36.624;-64.282;2022-12-05T00:11:31;28.50;25.60
59973;DHT22;55298;-36.624;-64.282;2022-12-05T00:14:00;28.40;25.70
59973;DHT22;55298;-36.624;-64.282;2022-12-05T00:16:30;28.40;25.60
59973;DHT22;55298;-36.624;-64.282;2022-12-05T00:19:00;28.30;25.60
59973;DHT22;55298;-36.624;-64.282;2022-12-05T00:21:31;28.30;25.50
59973;DHT22;55298;-36.624;-64.282;2022-12-05T00:24:00;28.30;25.60
59973;DHT22;55298;-36.624;-64.282;2022-12-05T00:26:29;28.20;25.50
59973;DHT22;55298;-36.624;-64.282;2022-12-05T00:28:58;28.20;25.70
59973;DHT22;55298;-36.624;-64.282;2022-12-05T00:31:27;28.10;25.40
59973;DHT22;55298;-36.624;-64.282;2022-12-05T00:33:58;28.00;25.70
59973;DHT22;55298;-36.624;-64.282;2022-12-05T00:36:29;28.00;25.60
59973;DHT22;55298;-36.624;-64.282;2022-12-05T00:39:01;28.00;25.60
59973;DHT22;55298;-36.624;-64.282;2022-12-05T00:41:30;27.90;25.80
59973;DHT22;55298;-36.624;-64.282;2022-12-05T00:44:00;27.90;25.90
59973;DHT22;55298;-36.624;-64.282;2022-12-05T00:46:31;27.90;25.80
59973;DHT22;55298;-36.624;-64.282;2022-12-05T00:49:00;27.80;25.80
59973;DHT22;55298;-36.624;-64.282;2022-12-05T00:51:31;27.70;26.00
59973;DHT22;55298;-36.624;-64.282;2022-12-05T00:54:03;27.70;25.90
59973;DHT22;55298;-36.624;-64.282;2022-12-05T00:56:31;27.70;25.90
59973;DHT22;55298;-36.624;-64.282;2022-12-05T00:59:00;27.60;26.00
59973;DHT22;55298;-36.624;-64.282;2022-12-05T01:01:36;27.60;26.20
59973;DHT22;55298;-36.624;-64.282;2022-12-05T01:04:11;27.50;26.20
59973;DHT22;55298;-36.624;-64.282;2022-12-05T01:06:40;27.40;26.40
59973;DHT22;55298;-36.624;-64.282;2022-12-05T01:09:09;27.30;26.40
59973;DHT22;55298;-36.624;-64.282;2022-12-05T01:11:37;27.30;26.40
59973;DHT22;55298;-36.624;-64.282;2022-12-05T01:14:05;27.20;26.30
59973;DHT22;55298;-36.624;-64.282;2022-12-05T01:16:36;27.20;26.10
59973;DHT22;55298;-36.624;-64.282;2022-12-05T01:19:11;27.20;26.30
59973;DHT22;55298;-36.624;-64.282;2022-12-05T01:21:41;27.20;26.00
59973;DHT22;55298;-36.624;-64.282;2022-12-05T01:24:11;27.20;26.00
59973;DHT22;55298;-36.624;-64.282;2022-12-05T01:26:40;27.20;26.10
59973;DHT22;55298;-36.624;-64.282;2022-12-05T01:29:08;27.10;26.20
59973;DHT22;55298;-36.624;-64.282;2022-12-05T01:31:39;27.10;26.00
59973;DHT22;55298;-36.624;-64.282;2022-12-05T01:34:10;27.10;26.40
59973;DHT22;55298;-36.624;-64.282;2022-12-05T01:36:40;27.00;26.50
59973;DHT22;55298;-36.624;-64.282;2022-12-05T01:39:09;26.90;26.60
59973;DHT22;55298;-36.624;-64.282;2022-12-05T01:41:42;26.90;26.80
59973;DHT22;55298;-36.624;-64.282;2022-12-05T01:47:21;26.70;27.00
59973;DHT22;55298;-36.624;-64.282;2022-12-05T01:49:50;26.60;27.10
59973;DHT22;55298;-36.624;-64.282;2022-12-05T01:52:21;26.50;27.10
59973;DHT22;55298;-36.624;-64.282;2022-12-05T01:54:53;26.50;27.30
59973;DHT22;55298;-36.624;-64.282;2022-12-05T01:57:24;26.50;27.30
59973;DHT22;55298;-36.624;-64.282;2022-12-05T01:59:57;26.40;27.40
59973;DHT22;55298;-36.624;-64.282;2022-12-05T02:02:28;26.40;27.30
59973;DHT22;55298;-36.624;-64.282;2022-12-05T02:05:09;26.40;27.30
59973;DHT22;55298;-36.624;-64.282;2022-12-05T02:07:39;26.40;27.40
59973;DHT22;55298;-36.624;-64.282;2022-12-05T02:10:09;26.40;27.50
59973;DHT22;55298;-36.624;-64.282;2022-12-05T02:12:37;26.30;27.50
59973;DHT22;55298;-36.624;-64.282;2022-12-05T02:18:10;26.30;27.60
59973;DHT22;55298;-36.624;-64.282;2022-12-05T02:20:58;26.30;27.60
59973;DHT22;55298;-36.624;-64.282;2022-12-05T02:24:05;26.20;27.70
59973;DHT22;55298;-36.624;-64.282;2022-12-05T02:26:47;26.20;27.80
59973;DHT22;55298;-36.624;-64.282;2022-12-05T02:32:17;26.10;27.80
59973;DHT22;55298;-36.624;-64.282;2022-12-05T02:34:59;26.10;27.70
59973;DHT22;55298;-36.624;-64.282;2022-12-05T02:37:41;26.10;27.90
59973;DHT22;55298;-36.624;-64.282;2022-12-05T02:40:25;26.00;28.10
59973;DHT22;55298;-36.624;-64.282;2022-12-05T02:43:15;25.90;28.20
59973;DHT22;55298;-36.624;-64.282;2022-12-05T02:45:47;25.90;28.30
59973;DHT22;55298;-36.624;-64.282;2022-12-05T02:48:16;25.80;28.30
59973;DHT22;55298;-36.624;-64.282;2022-12-05T02:50:47;25.80;28.50
59973;DHT22;55298;-36.624;-64.282;2022-12-05T02:53:17;25.80;28.20
59973;DHT22;55298;-36.624;-64.282;2022-12-05T02:55:48;25.80;28.00
59973;DHT22;55298;-36.624;-64.282;2022-12-05T02:58:23;25.80;28.00
59973;DHT22;55298;-36.624;-64.282;2022-12-05T03:00:55;25.80;28.00
59973;DHT22;55298;-36.624;-64.282;2022-12-05T03:03:23;25.70;28.10
59973;DHT22;55298;-36.624;-64.282;2022-12-05T03:06:10;25.70;28.10
59973;DHT22;55298;-36.624;-64.282;2022-12-05T03:08:52;25.70;28.10
59973;DHT22;55298;-36.624;-64.282;2022-12-05T03:11:21;25.70;28.00
59973;DHT22;55298;-36.624;-64.282;2022-12-05T03:13:52;25.60;28.20
59973;DHT22;55298;-36.624;-64.282;2022-12-05T03:16:32;25.60;28.20
59973;DHT22;55298;-36.624;-64.282;2022-12-05T03:19:11;25.50;28.40
59973;DHT22;55298;-36.624;-64.282;2022-12-05T03:21:54;25.40;28.50
59973;DHT22;55298;-36.624;-64.282;2022-12-05T03:24:23;25.30;28.70
59973;DHT22;55298;-36.624;-64.282;2022-12-05T03:29:56;25.20;28.80
59973;DHT22;55298;-36.624;-64.282;2022-12-05T03:32:45;25.10;29.00
59973;DHT22;55298;-36.624;-64.282;2022-12-05T03:38:24;25.10;28.90
59973;DHT22;55298;-36.624;-64.282;2022-12-05T03:41:07;25.10;28.80
59973;DHT22;55298;-36.624;-64.282;2022-12-05T03:43:56;25.00;28.80
59973;DHT22;55298;-36.624;-64.282;2022-12-05T03:46:30;25.00;28.80
59973;DHT22;55298;-36.624;-64.282;2022-12-05T03:49:15;25.00;28.50
59973;DHT22;55298;-36.624;-64.282;2022-12-05T03:51:56;25.10;28.30
59973;DHT22;55298;-36.624;-64.282;2022-12-05T03:54:34;25.10;28.40
59973;DHT22;55298;-36.624;-64.282;2022-12-05T03:57:10;25.10;28.30
59973;DHT22;55298;-36.624;-64.282;2022-12-05T03:59:50;25.10;28.30
59973;DHT22;55298;-36.624;-64.282;2022-12-05T04:02:50;25.10;28.40
59973;DHT22;55298;-36.624;-64.282;2022-12-05T04:05:20;25.00;28.20
59973;DHT22;55298;-36.624;-64.282;2022-12-05T04:07:54;25.00;28.10
59973;DHT22;55298;-36.624;-64.282;2022-12-05T04:10:27;25.00;28.00
59973;DHT22;55298;-36.624;-64.282;2022-12-05T04:12:59;25.00;27.90
59973;DHT22;55298;-36.624;-64.282;2022-12-05T04:15:49;25.00;28.00
59973;DHT22;55298;-36.624;-64.282;2022-12-05T04:18:29;24.90;28.00
59973;DHT22;55298;-36.624;-64.282;2022-12-05T04:20:58;24.90;28.10
59973;DHT22;55298;-36.624;-64.282;2022-12-05T04:23:36;24.90;28.20
59973;DHT22;55298;-36.624;-64.282;2022-12-05T04:26:20;24.90;28.30
59973;DHT22;55298;-36.624;-64.282;2022-12-05T04:28:58;24.80;28.40
59973;DHT22;55298;-36.624;-64.282;2022-12-05T04:31:36;24.70;28.40
59973;DHT22;55298;-36.624;-64.282;2022-12-05T04:34:19;24.70;28.40
59973;DHT22;55298;-36.624;-64.282;2022-12-05T04:42:17;24.70;28.40
59973;DHT22;55298;-36.624;-64.282;2022-12-05T04:44:52;24.60;28.40
59973;DHT22;55298;-36.624;-64.282;2022-12-05T04:47:23;24.60;28.40
59973;DHT22;55298;-36.624;-64.282;2022-12-05T04:49:55;24.60;28.40
59973;DHT22;55298;-36.624;-64.282;2022-12-05T04:52:25;24.60;28.30
59973;DHT22;55298;-36.624;-64.282;2022-12-05T04:55:09;24.60;28.30
59973;DHT22;55298;-36.624;-64.282;2022-12-05T04:57:53;24.60;28.30
59973;DHT22;55298;-36.624;-64.282;2022-12-05T05:00:23;24.60;28.40
59973;DHT22;55298;-36.624;-64.282;2022-12-05T05:03:06;24.60;28.50
59973;DHT22;55298;-36.624;-64.282;2022-12-05T05:05:37;24.70;28.60
59973;DHT22;55298;-36.624;-64.282;2022-12-05T05:08:14;24.60;28.50
59973;DHT22;55298;-36.624;-64.282;2022-12-05T05:10:51;24.60;28.40
59973;DHT22;55298;-36.624;-64.282;2022-12-05T05:13:21;24.50;28.60
59973;DHT22;55298;-36.624;-64.282;2022-12-05T05:15:49;24.50;28.80
59973;DHT22;55298;-36.624;-64.282;2022-12-05T05:18:16;24.40;29.30
59973;DHT22;55298;-36.624;-64.282;2022-12-05T05:20:45;24.30;29.70
59973;DHT22;55298;-36.624;-64.282;2022-12-05T05:23:12;24.10;30.00
59973;DHT22;55298;-36.624;-64.282;2022-12-05T05:25:39;24.00;30.50
59973;DHT22;55298;-36.624;-64.282;2022-12-05T05:28:07;23.90;31.20
59973;DHT22;55298;-36.624;-64.282;2022-12-05T05:30:35;23.90;31.30
59973;DHT22;55298;-36.624;-64.282;2022-12-05T05:33:03;23.80;32.00
59973;DHT22;55298;-36.624;-64.282;2022-12-05T05:35:35;23.70;33.20
59973;DHT22;55298;-36.624;-64.282;2022-12-05T05:38:04;23.50;33.80
59973;DHT22;55298;-36.624;-64.282;2022-12-05T05:40:34;23.40;34.10
59973;DHT22;55298;-36.624;-64.282;2022-12-05T05:43:03;23.30;35.00
59973;DHT22;55298;-36.624;-64.282;2022-12-05T05:45:30;23.20;35.40
59973;DHT22;55298;-36.624;-64.282;2022-12-05T05:47:58;23.20;35.70
59973;DHT22;55298;-36.624;-64.282;2022-12-05T05:50:28;23.20;35.90
59973;DHT22;55298;-36.624;-64.282;2022-12-05T05:52:55;23.20;36.00
59973;DHT22;55298;-36.624;-64.282;2022-12-05T05:55:22;23.30;36.20
59973;DHT22;55298;-36.624;-64.282;2022-12-05T05:57:50;23.20;36.50
59973;DHT22;55298;-36.624;-64.282;2022-12-05T06:00:18;23.30;37.10
59973;DHT22;55298;-36.624;-64.282;2022-12-05T06:02:45;23.20;37.30
59973;DHT22;55298;-36.624;-64.282;2022-12-05T06:05:13;23.20;37.50
59973;DHT22;55298;-36.624;-64.282;2022-12-05T06:07:40;23.20;37.70
59973;DHT22;55298;-36.624;-64.282;2022-12-05T06:10:08;23.20;37.80
59973;DHT22;55298;-36.624;-64.282;2022-12-05T06:12:36;23.20;37.80
59973;DHT22;55298;-36.624;-64.282;2022-12-05T06:15:03;23.20;38.30
59973;DHT22;55298;-36.624;-64.282;2022-12-05T06:17:31;23.20;38.40
59973;DHT22;55298;-36.624;-64.282;2022-12-05T06:19:59;23.10;38.60
59973;DHT22;55298;-36.624;-64.282;2022-12-05T06:22:29;23.10;38.80
59973;DHT22;55298;-36.624;-64.282;2022-12-05T06:24:57;23.00;39.20
59973;DHT22;55298;-36.624;-64.282;2022-12-05T06:27:25;22.90;39.60
59973;DHT22;55298;-36.624;-64.282;2022-12-05T06:29:55;22.90;39.90
59973;DHT22;55298;-36.624;-64.282;2022-12-05T06:32:23;22.80;40.10
59973;DHT22;55298;-36.624;-64.282;2022-12-05T06:34:50;22.80;40.00
59973;DHT22;55298;-36.624;-64.282;2022-12-05T06:37:18;22.80;40.50
59973;DHT22;55298;-36.624;-64.282;2022-12-05T06:39:45;22.80;40.60
59973;DHT22;55298;-36.624;-64.282;2022-12-05T06:42:14;22.70;40.80
59973;DHT22;55298;-36.624;-64.282;2022-12-05T06:44:41;22.70;41.30
59973;DHT22;55298;-36.624;-64.282;2022-12-05T06:47:09;22.60;41.50
59973;DHT22;55298;-36.624;-64.282;2022-12-05T06:49:37;22.50;41.70
59973;DHT22;55298;-36.624;-64.282;2022-12-05T06:52:04;22.50;42.10
59973;DHT22;55298;-36.624;-64.282;2022-12-05T06:54:32;22.50;42.10
59973;DHT22;55298;-36.624;-64.282;2022-12-05T06:57:01;22.50;42.30
59973;DHT22;55298;-36.624;-64.282;2022-12-05T06:59:29;22.40;42.50
59973;DHT22;55298;-36.624;-64.282;2022-12-05T07:01:56;22.40;42.60
59973;DHT22;55298;-36.624;-64.282;2022-12-05T07:04:26;22.40;42.80
59973;DHT22;55298;-36.624;-64.282;2022-12-05T07:06:54;22.40;42.90
59973;DHT22;55298;-36.624;-64.282;2022-12-05T07:09:24;22.40;42.70
59973;DHT22;55298;-36.624;-64.282;2022-12-05T07:12:12;22.40;43.10
59973;DHT22;55298;-36.624;-64.282;2022-12-05T07:14:40;22.30;43.50
59973;DHT22;55298;-36.624;-64.282;2022-12-05T07:17:09;22.20;43.80
59973;DHT22;55298;-36.624;-64.282;2022-12-05T07:19:37;22.20;44.00
59973;DHT22;55298;-36.624;-64.282;2022-12-05T07:22:05;22.10;44.10
59973;DHT22;55298;-36.624;-64.282;2022-12-05T07:24:32;22.10;44.90
59973;DHT22;55298;-36.624;-64.282;2022-12-05T07:27:00;22.10;44.30
59973;DHT22;55298;-36.624;-64.282;2022-12-05T07:29:27;22.10;44.70
59973;DHT22;55298;-36.624;-64.282;2022-12-05T07:31:55;22.00;44.80
59973;DHT22;55298;-36.624;-64.282;2022-12-05T07:34:23;21.90;45.20
59973;DHT22;55298;-36.624;-64.282;2022-12-05T07:36:50;21.80;45.50
59973;DHT22;55298;-36.624;-64.282;2022-12-05T07:39:18;21.70;46.00
59973;DHT22;55298;-36.624;-64.282;2022-12-05T07:41:45;21.70;45.90
59973;DHT22;55298;-36.624;-64.282;2022-12-05T07:44:15;21.60;46.40
59973;DHT22;55298;-36.624;-64.282;2022-12-05T07:46:44;21.50;46.90
59973;DHT22;55298;-36.624;-64.282;2022-12-05T07:49:11;21.40;47.40
59973;DHT22;55298;-36.624;-64.282;2022-12-05T07:51:41;21.30;47.60
59973;DHT22;55298;-36.624;-64.282;2022-12-05T07:54:09;21.30;47.80
59973;DHT22;55298;-36.624;-64.282;2022-12-05T07:56:38;21.30;47.80
59973;DHT22;55298;-36.624;-64.282;2022-12-05T07:59:06;21.20;48.40
59973;DHT22;55298;-36.624;-64.282;2022-12-05T08:01:35;21.10;48.40
59973;DHT22;55298;-36.624;-64.282;2022-12-05T08:04:03;21.10;48.80
59973;DHT22;55298;-36.624;-64.282;2022-12-05T08:06:33;21.10;48.70
59973;DHT22;55298;-36.624;-64.282;2022-12-05T08:09:01;21.10;48.90
59973;DHT22;55298;-36.624;-64.282;2022-12-05T08:11:31;20.90;49.50
59973;DHT22;55298;-36.624;-64.282;2022-12-05T08:14:04;20.80;49.80
59973;DHT22;55298;-36.624;-64.282;2022-12-05T08:16:32;20.80;50.00
59973;DHT22;55298;-36.624;-64.282;2022-12-05T08:19:03;20.70;50.20
59973;DHT22;55298;-36.624;-64.282;2022-12-05T08:21:31;20.70;50.80
59973;DHT22;55298;-36.624;-64.282;2022-12-05T08:24:02;20.70;50.30
59973;DHT22;55298;-36.624;-64.282;2022-12-05T08:26:32;20.60;50.50
59973;DHT22;55298;-36.624;-64.282;2022-12-05T08:29:04;20.60;51.00
59973;DHT22;55298;-36.624;-64.282;2022-12-05T08:31:34;20.40;51.50
59973;DHT22;55298;-36.624;-64.282;2022-12-05T08:34:03;20.40;51.70
59973;DHT22;55298;-36.624;-64.282;2022-12-05T08:36:31;20.50;52.10
59973;DHT22;55298;-36.624;-64.282;2022-12-05T08:39:00;20.30;52.20
59973;DHT22;55298;-36.624;-64.282;2022-12-05T08:41:30;20.30;52.50
59973;DHT22;55298;-36.624;-64.282;2022-12-05T08:44:03;20.30;52.50
59973;DHT22;55298;-36.624;-64.282;2022-12-05T08:46:35;20.20;52.60
59973;DHT22;55298;-36.624;-64.282;2022-12-05T08:49:05;20.10;52.80
59973;DHT22;55298;-36.624;-64.282;2022-12-05T08:51:33;20.10;53.00
59973;DHT22;55298;-36.624;-64.282;2022-12-05T08:54:03;20.10;53.10
59973;DHT22;55298;-36.624;-64.282;2022-12-05T08:56:30;20.10;53.20
59973;DHT22;55298;-36.624;-64.282;2022-12-05T08:58:59;20.10;53.40
59973;DHT22;55298;-36.624;-64.282;2022-12-05T09:01:28;20.10;53.40
59973;DHT22;55298;-36.624;-64.282;2022-12-05T09:03:58;20.10;53.60
59973;DHT22;55298;-36.624;-64.282;2022-12-05T09:06:27;20.20;53.60
59973;DHT22;55298;-36.624;-64.282;2022-12-05T09:09:02;20.10;54.00
59973;DHT22;55298;-36.624;-64.282;2022-12-05T09:11:34;20.00;54.10
59973;DHT22;55298;-36.624;-64.282;2022-12-05T09:14:04;20.10;54.20
59973;DHT22;55298;-36.624;-64.282;2022-12-05T09:16:34;20.00;54.50
59973;DHT22;55298;-36.624;-64.282;2022-12-05T09:19:02;20.10;54.60
59973;DHT22;55298;-36.624;-64.282;2022-12-05T09:21:31;20.20;54.70
59973;DHT22;55298;-36.624;-64.282;2022-12-05T09:23:59;20.10;55.00
59973;DHT22;55298;-36.624;-64.282;2022-12-05T09:26:29;20.10;55.10
59973;DHT22;55298;-36.624;-64.282;2022-12-05T09:28:56;20.10;55.40
59973;DHT22;55298;-36.624;-64.282;2022-12-05T09:31:26;20.10;55.50
59973;DHT22;55298;-36.624;-64.282;2022-12-05T09:33:54;20.10;55.50
59973;DHT22;55298;-36.624;-64.282;2022-12-05T09:36:29;20.10;55.80
59973;DHT22;55298;-36.624;-64.282;2022-12-05T09:39:02;20.10;55.80
59973;DHT22;55298;-36.624;-64.282;2022-12-05T09:45:11;20.10;56.50
59973;DHT22;55298;-36.624;-64.282;2022-12-05T09:47:47;20.20;56.50
59973;DHT22;55298;-36.624;-64.282;2022-12-05T09:50:22;20.20;56.60
59973;DHT22;55298;-36.624;-64.282;2022-12-05T09:53:04;20.20;56.50
59973;DHT22;55298;-36.624;-64.282;2022-12-05T09:56:03;20.40;56.60
59973;DHT22;55298;-36.624;-64.282;2022-12-05T09:58:42;20.60;56.80
59973;DHT22;55298;-36.624;-64.282;2022-12-05T10:04:13;20.80;56.00
59973;DHT22;55298;-36.624;-64.282;2022-12-05T10:07:21;21.40;55.10
59973;DHT22;55298;-36.624;-64.282;2022-12-05T10:10:07;22.40;52.60
59973;DHT22;55298;-36.624;-64.282;2022-12-05T10:15:51;23.00;50.20
59973;DHT22;55298;-36.624;-64.282;2022-12-05T10:18:49;22.80;51.00
59973;DHT22;55298;-36.624;-64.282;2022-12-05T10:21:30;22.60;51.40
59973;DHT22;55298;-36.624;-64.282;2022-12-05T10:24:03;22.40;52.10
59973;DHT22;55298;-36.624;-64.282;2022-12-05T10:26:33;22.50;52.20
59973;DHT22;55298;-36.624;-64.282;2022-12-05T10:31:56;22.70;52.30
59973;DHT22;55298;-36.624;-64.282;2022-12-05T10:34:36;22.70;51.80
59973;DHT22;55298;-36.624;-64.282;2022-12-05T10:37:16;22.70;52.10
59973;DHT22;55298;-36.624;-64.282;2022-12-05T10:39:46;22.80;52.30
59973;DHT22;55298;-36.624;-64.282;2022-12-05T10:42:19;22.70;52.50
59973;DHT22;55298;-36.624;-64.282;2022-12-05T10:44:53;22.80;52.60
59973;DHT22;55298;-36.624;-64.282;2022-12-05T10:47:23;22.90;52.40
59973;DHT22;55298;-36.624;-64.282;2022-12-05T10:49:51;23.00;52.10
59973;DHT22;55298;-36.624;-64.282;2022-12-05T10:52:20;23.20;52.00
59973;DHT22;55298;-36.624;-64.282;2022-12-05T10:54:58;23.40;51.30
59973;DHT22;55298;-36.624;-64.282;2022-12-05T10:57:29;23.50;51.10
59973;DHT22;55298;-36.624;-64.282;2022-12-05T11:00:08;23.60;51.00
59973;DHT22;55298;-36.624;-64.282;2022-12-05T11:02:36;23.90;50.60
59973;DHT22;55298;-36.624;-64.282;2022-12-05T11:05:05;24.20;49.80
59973;DHT22;55298;-36.624;-64.282;2022-12-05T11:07:57;24.50;49.40
59973;DHT22;55298;-36.624;-64.282;2022-12-05T11:10:35;25.60;48.20
59973;DHT22;55298;-36.624;-64.282;2022-12-05T11:13:16;27.20;44.20
59973;DHT22;55298;-36.624;-64.282;2022-12-05T11:15:51;28.20;42.10
59973;DHT22;55298;-36.624;-64.282;2022-12-05T11:18:28;29.40;40.50
59973;DHT22;55298;-36.624;-64.282;2022-12-05T11:21:13;30.30;37.90
59973;DHT22;55298;-36.624;-64.282;2022-12-05T11:23:44;30.60;36.10
59973;DHT22;55298;-36.624;-64.282;2022-12-05T11:29:02;31.00;36.30
59973;DHT22;55298;-36.624;-64.282;2022-12-05T11:31:33;31.60;35.30
59973;DHT22;55298;-36.624;-64.282;2022-12-05T11:34:11;31.90;33.90
59973;DHT22;55298;-36.624;-64.282;2022-12-05T11:36:51;31.80;34.20
59973;DHT22;55298;-36.624;-64.282;2022-12-05T11:39:24;31.90;34.30
59973;DHT22;55298;-36.624;-64.282;2022-12-05T11:42:15;32.00;34.20
59973;DHT22;55298;-36.624;-64.282;2022-12-05T11:51:02;31.70;34.10
59973;DHT22;55298;-36.624;-64.282;2022-12-05T11:54:22;32.20;33.30
59973;DHT22;55298;-36.624;-64.282;2022-12-05T11:56:57;33.00;32.90
59973;DHT22;55298;-36.624;-64.282;2022-12-05T11:59:47;33.50;31.40
59973;DHT22;55298;-36.624;-64.282;2022-12-05T12:02:56;33.60;30.70
59973;DHT22;55298;-36.624;-64.282;2022-12-05T12:08:28;34.10;30.50
59973;DHT22;55298;-36.624;-64.282;2022-12-05T12:11:19;34.60;29.80
59973;DHT22;55298;-36.624;-64.282;2022-12-05T12:14:03;34.70;30.10
59973;DHT22;55298;-36.624;-64.282;2022-12-05T12:17:04;34.90;29.40
59973;DHT22;55298;-36.624;-64.282;2022-12-05T12:22:52;34.60;28.80
59973;DHT22;55298;-36.624;-64.282;2022-12-05T12:25:49;33.70;29.40
59973;DHT22;55298;-36.624;-64.282;2022-12-05T12:34:37;33.90;29.60
59973;DHT22;55298;-36.624;-64.282;2022-12-05T12:43:11;33.20;30.60
59973;DHT22;55298;-36.624;-64.282;2022-12-05T12:49:04;32.40;32.00
59973;DHT22;55298;-36.624;-64.282;2022-12-05T12:51:33;32.60;31.90
59973;DHT22;55298;-36.624;-64.282;2022-12-05T12:54:23;33.60;30.40
59973;DHT22;55298;-36.624;-64.282;2022-12-05T13:02:46;33.70;29.50
59973;DHT22;55298;-36.624;-64.282;2022-12-05T13:05:31;32.80;30.70
59973;DHT22;55298;-36.624;-64.282;2022-12-05T13:08:10;32.40;31.50
59973;DHT22;55298;-36.624;-64.282;2022-12-05T13:10:44;31.90;31.80
59973;DHT22;55298;-36.624;-64.282;2022-12-05T13:13:19;31.50;32.70
59973;DHT22;55298;-36.624;-64.282;2022-12-05T13:15:54;32.50;32.00
59973;DHT22;55298;-36.624;-64.282;2022-12-05T13:18:28;34.40;30.70
59973;DHT22;55298;-36.624;-64.282;2022-12-05T13:21:00;35.80;28.50
59973;DHT22;55298;-36.624;-64.282;2022-12-05T13:23:33;36.10;27.60
59973;DHT22;55298;-36.624;-64.282;2022-12-05T13:26:08;36.00;27.10
59973;DHT22;55298;-36.624;-64.282;2022-12-05T13:28:48;35.50;27.30
59973;DHT22;55298;-36.624;-64.282;2022-12-05T13:31:17;34.90;27.50
59973;DHT22;55298;-36.624;-64.282;2022-12-05T13:33:50;34.70;27.90
59973;DHT22;55298;-36.624;-64.282;2022-12-05T13:36:21;34.50;28.50
59973;DHT22;55298;-36.624;-64.282;2022-12-05T13:39:05;34.80;28.20
59973;DHT22;55298;-36.624;-64.282;2022-12-05T13:41:52;36.00;27.40
59973;DHT22;55298;-36.624;-64.282;2022-12-05T13:44:38;37.50;25.60
59973;DHT22;55298;-36.624;-64.282;2022-12-05T13:48:18;38.40;25.70
59973;DHT22;55298;-36.624;-64.282;2022-12-05T13:50:26;39.00;23.50
59973;DHT22;55298;-36.624;-64.282;2022-12-05T13:53:01;39.30;23.60
59973;DHT22;55298;-36.624;-64.282;2022-12-05T13:55:53;39.50;22.50
59973;DHT22;55298;-36.624;-64.282;2022-12-05T13:58:42;39.80;23.20
59973;DHT22;55298;-36.624;-64.282;2022-12-05T14:01:40;40.10;21.70
59973;DHT22;55298;-36.624;-64.282;2022-12-05T14:04:38;40.00;21.30
59973;DHT22;55298;-36.624;-64.282;2022-12-05T14:07:09;40.40;21.50
59973;DHT22;55298;-36.624;-64.282;2022-12-05T14:09:51;40.90;21.10
59973;DHT22;55298;-36.624;-64.282;2022-12-05T14:12:29;41.10;20.10
59973;DHT22;55298;-36.624;-64.282;2022-12-05T14:15:00;41.10;19.80
59973;DHT22;55298;-36.624;-64.282;2022-12-05T14:17:40;41.00;19.60
59973;DHT22;55298;-36.624;-64.282;2022-12-05T14:20:41;40.80;20.10
59973;DHT22;55298;-36.624;-64.282;2022-12-05T14:26:40;40.90;19.80
59973;DHT22;55298;-36.624;-64.282;2022-12-05T14:29:34;41.00;19.90
59973;DHT22;55298;-36.624;-64.282;2022-12-05T14:37:34;41.10;19.10
59973;DHT22;55298;-36.624;-64.282;2022-12-05T14:40:29;41.10;19.40
59973;DHT22;55298;-36.624;-64.282;2022-12-05T14:43:19;41.50;20.10
59973;DHT22;55298;-36.624;-64.282;2022-12-05T14:46:04;41.70;19.60
59973;DHT22;55298;-36.624;-64.282;2022-12-05T14:48:39;41.90;19.00
59973;DHT22;55298;-36.624;-64.282;2022-12-05T14:54:16;41.80;18.80
59973;DHT22;55298;-36.624;-64.282;2022-12-05T14:56:50;41.80;18.70
59973;DHT22;55298;-36.624;-64.282;2022-12-05T14:59:31;41.90;18.60
59973;DHT22;55298;-36.624;-64.282;2022-12-05T15:02:02;42.00;18.20
59973;DHT22;55298;-36.624;-64.282;2022-12-05T15:04:41;41.70;18.90
59973;DHT22;55298;-36.624;-64.282;2022-12-05T15:07:28;41.90;18.70
59973;DHT22;55298;-36.624;-64.282;2022-12-05T15:10:15;41.90;18.50
59973;DHT22;55298;-36.624;-64.282;2022-12-05T15:12:53;41.80;18.60
59973;DHT22;55298;-36.624;-64.282;2022-12-05T15:18:36;41.80;18.40
59973;DHT22;55298;-36.624;-64.282;2022-12-05T15:24:17;41.50;18.50
59973;DHT22;55298;-36.624;-64.282;2022-12-05T15:26:49;41.70;18.50
59973;DHT22;55298;-36.624;-64.282;2022-12-05T15:29:27;41.80;18.30
59973;DHT22;55298;-36.624;-64.282;2022-12-05T15:32:15;41.80;17.90
59973;DHT22;55298;-36.624;-64.282;2022-12-05T15:35:00;41.80;18.30
59973;DHT22;55298;-36.624;-64.282;2022-12-05T15:40:25;42.20;18.30
59973;DHT22;55298;-36.624;-64.282;2022-12-05T15:43:28;42.10;17.40
59973;DHT22;55298;-36.624;-64.282;2022-12-05T15:46:14;42.00;17.70
59973;DHT22;55298;-36.624;-64.282;2022-12-05T15:48:46;41.60;17.50
59973;DHT22;55298;-36.624;-64.282;2022-12-05T15:51:15;41.30;17.80
59973;DHT22;55298;-36.624;-64.282;2022-12-05T15:53:55;41.50;17.80
59973;DHT22;55298;-36.624;-64.282;2022-12-05T15:56:32;41.50;18.00
59973;DHT22;55298;-36.624;-64.282;2022-12-05T15:59:08;41.70;17.80
59973;DHT22;55298;-36.624;-64.282;2022-12-05T16:01:44;42.00;17.90
59973;DHT22;55298;-36.624;-64.282;2022-12-05T16:04:36;42.00;17.40
59973;DHT22;55298;-36.624;-64.282;2022-12-05T16:07:10;42.00;17.40
59973;DHT22;55298;-36.624;-64.282;2022-12-05T16:09:41;41.90;17.50
59973;DHT22;55298;-36.624;-64.282;2022-12-05T16:12:30;41.60;17.30
59973;DHT22;55298;-36.624;-64.282;2022-12-05T16:17:51;41.60;17.60
59973;DHT22;55298;-36.624;-64.282;2022-12-05T16:20:40;41.30;18.00
59973;DHT22;55298;-36.624;-64.282;2022-12-05T16:23:36;41.10;17.90
59973;DHT22;55298;-36.624;-64.282;2022-12-05T16:26:18;41.00;17.20
59973;DHT22;55298;-36.624;-64.282;2022-12-05T16:28:59;40.80;17.90
59973;DHT22;55298;-36.624;-64.282;2022-12-05T16:31:31;40.70;17.70
59973;DHT22;55298;-36.624;-64.282;2022-12-05T16:34:11;40.70;17.90
59973;DHT22;55298;-36.624;-64.282;2022-12-05T16:36:49;40.70;17.60
59973;DHT22;55298;-36.624;-64.282;2022-12-05T16:39:19;40.60;17.90
59973;DHT22;55298;-36.624;-64.282;2022-12-05T16:41:51;40.60;17.90
59973;DHT22;55298;-36.624;-64.282;2022-12-05T16:47:25;40.40;17.90
59973;DHT22;55298;-36.624;-64.282;2022-12-05T16:49:53;40.50;17.80
59973;DHT22;55298;-36.624;-64.282;2022-12-05T16:52:29;40.50;18.00
59973;DHT22;55298;-36.624;-64.282;2022-12-05T16:55:04;40.50;17.90
59973;DHT22;55298;-36.624;-64.282;2022-12-05T16:57:37;40.60;17.50
59973;DHT22;55298;-36.624;-64.282;2022-12-05T17:00:12;40.50;17.60
59973;DHT22;55298;-36.624;-64.282;2022-12-05T17:02:41;40.70;17.60
59973;DHT22;55298;-36.624;-64.282;2022-12-05T17:05:16;40.70;17.90
59973;DHT22;55298;-36.624;-64.282;2022-12-05T17:07:44;40.70;17.90
59973;DHT22;55298;-36.624;-64.282;2022-12-05T17:10:14;40.70;17.50